createdAt,value
2022-12-01T00:04:44.573Z,2.84
2022-12-01T00:10:06.624Z,4.08
2022-12-01T00:15:12.511Z,3.54
2022-12-01T00:20:17.138Z,2.12
2022-12-01T00:25:21.595Z,3.61
2022-12-01T00:30:25.088Z,3.31
2022-12-01T00:35:28.736Z,3.73
2022-12-01T00:40:32.349Z,2.40
2022-12-01T00:45:45.924Z,3.44
2022-12-01T00:50:54.326Z,3.52
2022-12-01T00:55:58.147Z,3.37
2022-12-01T01:01:02.892Z,3.39
2022-12-01T01:06:11.662Z,3.75
2022-12-01T01:11:15.307Z,3.48
2022-12-01T01:16:21.661Z,3.91
2022-12-01T01:21:26.797Z,3.83
2022-12-01T01:26:32.800Z,3.94
2022-12-01T01:31:37.634Z,3.96
2022-12-01T01:36:41.199Z,2.13
2022-12-01T01:41:45.008Z,3.96
2022-12-01T01:46:52.743Z,3.58
2022-12-01T01:51:58.589Z,2.43
2022-12-01T01:57:03.804Z,3.23
2022-12-01T02:02:09.325Z,3.78
2022-12-01T02:07:17.031Z,3.76
2022-12-01T02:12:29.172Z,3.61
2022-12-01T02:17:44.015Z,3.68
2022-12-01T02:23:15.581Z,3.42
2022-12-01T02:28:35.756Z,3.95
2022-12-01T02:33:42.695Z,3.73
2022-12-01T02:38:50.161Z,3.50
2022-12-01T02:43:56.453Z,3.68
2022-12-01T02:49:05.126Z,3.69
2022-12-01T02:54:09.698Z,2.94
2022-12-01T02:59:16.115Z,3.63
2022-12-01T03:04:22.689Z,3.75
2022-12-01T03:09:51.256Z,3.69
2022-12-01T03:14:57.988Z,3.72
2022-12-01T03:20:09.813Z,3.84
2022-12-01T03:25:14.876Z,3.85
2022-12-01T03:30:18.753Z,3.16
2022-12-01T03:35:46.259Z,3.71
2022-12-01T03:40:52.137Z,3.89
2022-12-01T03:46:06.630Z,3.08
2022-12-01T03:51:20.126Z,3.65
2022-12-01T03:56:27.747Z,3.63
2022-12-01T04:01:39.383Z,4.02
2022-12-01T04:06:45.836Z,4.00
2022-12-01T04:12:07.674Z,3.50
2022-12-01T04:17:21.198Z,3.26
2022-12-01T04:22:25.191Z,3.49
2022-12-01T04:27:29.344Z,3.48
2022-12-01T04:32:32.935Z,3.57
2022-12-01T04:37:36.807Z,4.21
2022-12-01T04:42:40.301Z,4.00
2022-12-01T04:47:55.859Z,3.58
2022-12-01T04:52:59.289Z,2.76
2022-12-01T04:58:12.839Z,3.06
2022-12-01T05:03:16.373Z,3.25
2022-12-01T05:08:19.933Z,4.00
2022-12-01T05:13:33.933Z,4.01
2022-12-01T05:18:38.387Z,3.41
2022-12-01T05:23:42.087Z,3.96
2022-12-01T05:28:45.654Z,2.73
2022-12-01T05:33:58.643Z,2.63
2022-12-01T05:39:04.481Z,2.77
2022-12-01T05:44:07.944Z,3.89
2022-12-01T05:49:14.291Z,3.38
2022-12-01T05:54:18.433Z,2.74
2022-12-01T05:59:22.064Z,3.04
2022-12-01T06:04:25.542Z,2.89
2022-12-01T06:09:29.065Z,2.02
2022-12-01T06:14:32.592Z,3.42
2022-12-01T06:19:36.031Z,3.09
2022-12-01T06:24:39.921Z,3.58
2022-12-01T06:29:43.483Z,3.50
2022-12-01T06:34:46.940Z,2.38
2022-12-01T06:39:50.704Z,2.36
2022-12-01T06:44:55.464Z,3.72
2022-12-01T06:49:58.910Z,3.72
2022-12-01T06:55:04.677Z,2.97
2022-12-01T07:00:09.703Z,3.78
2022-12-01T07:05:14.394Z,3.64
2022-12-01T07:10:17.974Z,3.83
2022-12-01T07:15:21.421Z,3.20
2022-12-01T07:20:24.878Z,2.74
2022-12-01T07:25:28.581Z,3.83
2022-12-01T07:30:32.099Z,4.12
2022-12-01T07:35:45.542Z,3.95
2022-12-01T07:40:49.168Z,4.13
2022-12-01T07:45:52.893Z,4.04
2022-12-01T07:50:56.546Z,4.21
2022-12-01T07:56:05.542Z,3.75
2022-12-01T08:01:20.673Z,4.27
2022-12-01T08:06:25.706Z,4.40
2022-12-01T08:11:36.818Z,4.55
2022-12-01T08:16:40.304Z,4.66
2022-12-01T08:21:43.693Z,4.75
2022-12-01T08:27:07.070Z,4.48
2022-12-01T08:32:09.821Z,4.76
2022-12-01T08:37:12.624Z,4.85
2022-12-01T08:42:15.556Z,4.94
2022-12-01T08:47:19.008Z,3.10
2022-12-01T08:52:22.326Z,3.43
2022-12-01T08:57:25.076Z,5.02
2022-12-01T09:02:28.534Z,4.84
2022-12-01T09:07:31.538Z,3.78
2022-12-01T09:12:34.287Z,3.76
2022-12-01T09:17:37.141Z,4.93
2022-12-01T09:22:39.963Z,4.97
2022-12-01T09:27:45.199Z,4.89
2022-12-01T09:32:48.122Z,4.85
2022-12-01T09:37:50.852Z,4.98
2022-12-01T09:42:53.599Z,4.54
2022-12-01T09:48:00.478Z,5.44
2022-12-01T09:53:16.162Z,5.45
2022-12-01T09:58:23.996Z,5.57
2022-12-01T10:03:49.397Z,5.48
2022-12-01T10:08:58.742Z,5.80
2022-12-01T10:14:07.156Z,5.56
2022-12-01T10:19:18.723Z,5.13
2022-12-01T10:24:27.505Z,5.85
2022-12-01T10:29:48.052Z,5.40
2022-12-01T10:34:50.960Z,5.39
2022-12-01T10:39:56.083Z,6.18
2022-12-01T10:45:02.869Z,5.97
2022-12-01T10:50:07.176Z,6.31
2022-12-01T10:55:28.599Z,6.56
2022-12-01T11:06:05.551Z,6.31
2022-12-01T11:11:25.557Z,6.37
2022-12-01T11:16:44.445Z,6.03
2022-12-01T11:21:59.469Z,5.96
2022-12-01T11:27:03.165Z,6.23
2022-12-01T11:32:19.587Z,5.90
2022-12-01T11:37:25.207Z,6.44
2022-12-01T11:42:31.616Z,5.73
2022-12-01T11:47:34.782Z,5.76
2022-12-01T11:52:47.635Z,5.54
2022-12-01T11:57:54.761Z,5.73
2022-12-01T12:03:20.165Z,5.85
2022-12-01T12:08:37.715Z,5.55
2022-12-01T12:13:49.800Z,5.85
2022-12-01T12:19:33.879Z,5.72
2022-12-01T12:25:03.594Z,5.88
2022-12-01T12:30:06.357Z,6.09
2022-12-01T12:35:24.518Z,5.99
2022-12-01T12:40:46.708Z,5.36
2022-12-01T12:46:13.856Z,5.55
2022-12-01T12:51:37.933Z,5.55
2022-12-01T12:56:45.901Z,5.05
2022-12-01T13:01:58.461Z,5.35
2022-12-01T13:07:16.344Z,5.22
2022-12-01T13:12:33.062Z,5.18
2022-12-01T13:17:39.281Z,4.89
2022-12-01T13:22:42.577Z,4.95
2022-12-01T13:27:46.886Z,5.18
2022-12-01T13:32:50.674Z,5.06
2022-12-01T13:37:54.565Z,4.94
2022-12-01T13:43:08.613Z,3.98
2022-12-01T13:48:50.203Z,4.75
2022-12-01T13:54:17.785Z,5.02
2022-12-01T13:59:42.002Z,4.96
2022-12-01T14:04:44.978Z,4.83
2022-12-01T14:09:51.135Z,4.34
2022-12-01T14:15:00.259Z,4.87
2022-12-01T14:20:23.244Z,4.83
2022-12-01T14:25:29.975Z,4.77
2022-12-01T14:30:41.465Z,4.72
2022-12-01T14:35:44.282Z,4.76
2022-12-01T14:41:10.689Z,4.10
2022-12-01T14:46:25.294Z,4.34
2022-12-01T14:51:33.211Z,4.74
2022-12-01T14:56:38.128Z,4.13
2022-12-01T15:01:54.306Z,4.65
2022-12-01T15:06:58.196Z,4.62
2022-12-01T15:12:04.200Z,4.62
2022-12-01T15:17:09.621Z,4.62
2022-12-01T15:22:14.188Z,4.52
2022-12-01T15:27:33.540Z,4.26
2022-12-01T15:32:43.870Z,3.87
2022-12-01T15:37:47.467Z,3.62
2022-12-01T15:43:07.568Z,4.49
2022-12-01T15:48:30.772Z,4.46
2022-12-01T15:53:36.582Z,3.70
2022-12-01T15:58:46.205Z,3.75
2022-12-01T16:03:58.244Z,3.81
2022-12-01T16:09:36.205Z,4.31
2022-12-01T16:14:50.770Z,4.15
2022-12-01T16:20:21.544Z,4.35
2022-12-01T16:25:44.557Z,3.52
2022-12-01T16:30:47.531Z,3.57
2022-12-01T16:35:51.050Z,4.25
2022-12-01T16:40:59.828Z,4.26
2022-12-01T16:46:04.836Z,4.19
2022-12-01T16:51:08.883Z,3.98
2022-12-01T16:56:14.980Z,3.81
2022-12-01T17:01:18.281Z,4.22
2022-12-01T17:06:21.791Z,2.54
2022-12-01T17:11:24.920Z,2.38
2022-12-01T17:16:28.011Z,2.91
2022-12-01T17:21:31.479Z,3.91
2022-12-01T17:26:34.572Z,4.08
2022-12-01T17:31:37.932Z,3.32
2022-12-01T17:36:40.698Z,2.33
2022-12-01T17:41:43.428Z,3.89
2022-12-01T17:46:46.289Z,4.04
2022-12-01T17:51:49.344Z,2.34
2022-12-01T17:56:52.251Z,3.10
2022-12-01T18:02:05.378Z,3.45
2022-12-01T18:07:08.249Z,1.67
2022-12-01T18:12:10.925Z,3.32
2022-12-01T18:17:13.838Z,2.11
2022-12-01T18:22:17.019Z,2.93
2022-12-01T18:27:20.973Z,3.04
2022-12-01T18:32:25.446Z,2.80
2022-12-01T18:37:29.019Z,2.41
2022-12-01T18:42:33.565Z,2.40
2022-12-01T18:47:36.457Z,3.19
2022-12-01T18:52:39.619Z,2.15
2022-12-01T18:57:49.978Z,3.33
2022-12-01T19:02:52.898Z,3.06
2022-12-01T19:07:55.949Z,2.16
2022-12-01T19:12:58.764Z,2.85
2022-12-01T19:18:01.775Z,2.54
2022-12-01T19:23:04.481Z,2.65
2022-12-01T19:28:07.256Z,3.29
2022-12-01T19:33:10.008Z,2.49
2022-12-01T19:38:12.975Z,2.47
2022-12-01T19:43:15.675Z,3.41
2022-12-01T19:48:18.540Z,2.58
2022-12-01T19:53:21.265Z,2.65
2022-12-01T19:58:25.805Z,3.29
2022-12-01T20:03:28.504Z,3.13
2022-12-01T20:08:35.565Z,3.07
2022-12-01T20:13:42.110Z,3.29
2022-12-01T20:18:45.484Z,3.35
2022-12-01T20:23:59.498Z,3.35
2022-12-01T20:29:10.209Z,2.55
2022-12-01T20:34:19.616Z,3.36
2022-12-01T20:39:22.880Z,3.22
2022-12-01T20:44:25.700Z,2.47
2022-12-01T20:49:28.647Z,3.02
2022-12-01T20:54:32.235Z,3.43
2022-12-01T20:59:35.822Z,3.50
2022-12-01T21:04:38.544Z,2.15
2022-12-01T21:09:43.667Z,3.12
2022-12-01T21:14:54.837Z,3.61
2022-12-01T21:20:07.828Z,3.62
2022-12-01T21:25:19.691Z,2.73
2022-12-01T21:30:29.468Z,3.02
2022-12-01T21:35:32.264Z,3.21
2022-12-01T21:40:35.179Z,2.78
2022-12-01T21:45:37.974Z,3.11
2022-12-01T21:50:40.877Z,2.98
2022-12-01T21:55:48.516Z,2.79
2022-12-01T22:00:53.412Z,2.88
2022-12-01T22:06:29.196Z,2.92
2022-12-01T22:11:34.000Z,3.32
2022-12-01T22:16:41.211Z,3.67
2022-12-01T22:21:48.958Z,2.74
2022-12-01T22:27:14.440Z,3.10
2022-12-01T22:32:17.861Z,3.63
2022-12-01T22:37:25.036Z,3.65
2022-12-01T22:42:33.993Z,3.48
2022-12-01T22:47:37.074Z,3.31
2022-12-01T22:52:39.928Z,3.32
2022-12-01T22:57:42.834Z,2.54
2022-12-01T23:02:49.727Z,3.33
2022-12-01T23:07:53.955Z,3.33
2022-12-01T23:13:16.533Z,3.06
2022-12-01T23:18:29.044Z,2.90
2022-12-01T23:23:34.629Z,3.30
2022-12-01T23:28:40.105Z,3.37
2022-12-01T23:33:44.072Z,2.58
2022-12-01T23:38:48.942Z,3.32
2022-12-01T23:43:55.296Z,2.56
2022-12-01T23:49:02.550Z,2.86
2022-12-01T23:54:13.648Z,3.30
2022-12-01T23:59:16.380Z,1.88
